sensor_id;sensor_type;location;lat;lon;timestamp;temperature;humidity
75471;HTU21D;64051;46.320;48.028;2023-03-14T00:02:26;5.46;58.32
75471;HTU21D;64051;46.320;48.028;2023-03-14T00:04:54;5.46;58.27
75471;HTU21D;64051;46.320;48.028;2023-03-14T00:07:21;5.41;58.50
75471;HTU21D;64051;46.320;48.028;2023-03-14T00:09:50;5.41;58.46
75471;HTU21D;64051;46.320;48.028;2023-03-14T00:12:16;5.37;58.70
75471;HTU21D;64051;46.320;48.028;2023-03-14T00:14:42;5.36;58.81
75471;HTU21D;64051;46.320;48.028;2023-03-14T00:17:09;5.35;58.90
75471;HTU21D;64051;46.320;48.028;2023-03-14T00:19:35;5.38;58.75
75471;HTU21D;64051;46.320;48.028;2023-03-14T00:22:01;5.33;58.94
75471;HTU21D;64051;46.320;48.028;2023-03-14T00:24:26;5.34;59.05
75471;HTU21D;64051;46.320;48.028;2023-03-14T00:26:52;5.35;59.01
75471;HTU21D;64051;46.320;48.028;2023-03-14T00:29:18;5.32;59.05
75471;HTU21D;64051;46.320;48.028;2023-03-14T00:31:44;5.33;59.09
75471;HTU21D;64051;46.320;48.028;2023-03-14T00:34:10;5.34;59.24
75471;HTU21D;64051;46.320;48.028;2023-03-14T00:36:36;5.35;59.22
75471;HTU21D;64051;46.320;48.028;2023-03-14T00:39:02;5.38;58.90
75471;HTU21D;64051;46.320;48.028;2023-03-14T00:41:30;5.39;58.84
75471;HTU21D;64051;46.320;48.028;2023-03-14T00:43:56;5.35;59.11
75471;HTU21D;64051;46.320;48.028;2023-03-14T00:46:22;5.35;59.12
75471;HTU21D;64051;46.320;48.028;2023-03-14T00:48:48;5.36;58.85
75471;HTU21D;64051;46.320;48.028;2023-03-14T00:51:14;5.33;59.01
75471;HTU21D;64051;46.320;48.028;2023-03-14T00:53:43;5.31;59.08
75471;HTU21D;64051;46.320;48.028;2023-03-14T00:56:11;5.33;58.94
75471;HTU21D;64051;46.320;48.028;2023-03-14T00:58:37;5.35;58.84
75471;HTU21D;64051;46.320;48.028;2023-03-14T01:01:17;5.33;58.84
75471;HTU21D;64051;46.320;48.028;2023-03-14T01:03:45;5.34;58.88
75471;HTU21D;64051;46.320;48.028;2023-03-14T01:06:16;5.31;58.92
75471;HTU21D;64051;46.320;48.028;2023-03-14T01:08:43;5.27;59.09
75471;HTU21D;64051;46.320;48.028;2023-03-14T01:11:15;5.32;58.93
75471;HTU21D;64051;46.320;48.028;2023-03-14T01:13:41;5.31;58.82
75471;HTU21D;64051;46.320;48.028;2023-03-14T01:16:09;5.28;58.85
75471;HTU21D;64051;46.320;48.028;2023-03-14T01:18:38;5.28;58.93
75471;HTU21D;64051;46.320;48.028;2023-03-14T01:21:13;5.27;58.96
75471;HTU21D;64051;46.320;48.028;2023-03-14T01:23:40;5.27;58.94
75471;HTU21D;64051;46.320;48.028;2023-03-14T01:26:17;5.30;58.83
75471;HTU21D;64051;46.320;48.028;2023-03-14T01:28:50;5.28;58.80
75471;HTU21D;64051;46.320;48.028;2023-03-14T01:31:17;5.31;58.70
75471;HTU21D;64051;46.320;48.028;2023-03-14T01:33:43;5.26;58.83
75471;HTU21D;64051;46.320;48.028;2023-03-14T01:36:10;5.25;58.93
75471;HTU21D;64051;46.320;48.028;2023-03-14T01:38:37;5.28;58.71
75471;HTU21D;64051;46.320;48.028;2023-03-14T01:41:12;5.30;58.54
75471;HTU21D;64051;46.320;48.028;2023-03-14T01:43:38;5.26;58.70
75471;HTU21D;64051;46.320;48.028;2023-03-14T01:48:38;5.25;58.63
75471;HTU21D;64051;46.320;48.028;2023-03-14T01:51:09;5.23;58.70
75471;HTU21D;64051;46.320;48.028;2023-03-14T01:53:38;5.22;58.67
75471;HTU21D;64051;46.320;48.028;2023-03-14T01:56:07;5.21;58.68
75471;HTU21D;64051;46.320;48.028;2023-03-14T01:58:38;5.20;58.77
75471;HTU21D;64051;46.320;48.028;2023-03-14T02:01:06;5.19;58.82
75471;HTU21D;64051;46.320;48.028;2023-03-14T02:03:59;5.17;58.84
75471;HTU21D;64051;46.320;48.028;2023-03-14T02:06:53;5.15;58.98
75471;HTU21D;64051;46.320;48.028;2023-03-14T02:09:19;5.12;59.03
75471;HTU21D;64051;46.320;48.028;2023-03-14T02:11:46;5.09;59.06
75471;HTU21D;64051;46.320;48.028;2023-03-14T02:14:36;5.09;59.04
75471;HTU21D;64051;46.320;48.028;2023-03-14T02:17:27;5.06;58.93
75471;HTU21D;64051;46.320;48.028;2023-03-14T02:23:03;5.02;59.04
75471;HTU21D;64051;46.320;48.028;2023-03-14T02:25:40;5.01;59.03
75471;HTU21D;64051;46.320;48.028;2023-03-14T02:28:07;5.00;59.09
75471;HTU21D;64051;46.320;48.028;2023-03-14T02:30:34;4.96;59.24
75471;HTU21D;64051;46.320;48.028;2023-03-14T02:33:07;4.96;59.26
75471;HTU21D;64051;46.320;48.028;2023-03-14T02:36:04;4.94;59.30
75471;HTU21D;64051;46.320;48.028;2023-03-14T02:38:39;4.90;59.36
75471;HTU21D;64051;46.320;48.028;2023-03-14T02:41:09;4.89;59.38
75471;HTU21D;64051;46.320;48.028;2023-03-14T02:43:40;4.84;59.45
75471;HTU21D;64051;46.320;48.028;2023-03-14T02:46:15;4.82;59.54
75471;HTU21D;64051;46.320;48.028;2023-03-14T02:51:10;4.76;59.67
75471;HTU21D;64051;46.320;48.028;2023-03-14T02:53:37;4.74;59.74
75471;HTU21D;64051;46.320;48.028;2023-03-14T02:56:09;4.72;59.81
75471;HTU21D;64051;46.320;48.028;2023-03-14T02:58:36;4.72;59.80
75471;HTU21D;64051;46.320;48.028;2023-03-14T03:01:17;4.67;59.89
75471;HTU21D;64051;46.320;48.028;2023-03-14T03:03:43;4.66;59.98
75471;HTU21D;64051;46.320;48.028;2023-03-14T03:06:09;4.62;60.05
75471;HTU21D;64051;46.320;48.028;2023-03-14T03:08:35;4.62;60.11
75471;HTU21D;64051;46.320;48.028;2023-03-14T03:11:01;4.60;60.18
75471;HTU21D;64051;46.320;48.028;2023-03-14T03:13:29;4.57;60.26
75471;HTU21D;64051;46.320;48.028;2023-03-14T03:15:57;4.56;60.32
75471;HTU21D;64051;46.320;48.028;2023-03-14T03:18:23;4.54;60.40
75471;HTU21D;64051;46.320;48.028;2023-03-14T03:20:49;4.51;60.49
75471;HTU21D;64051;46.320;48.028;2023-03-14T03:23:15;4.50;60.55
75471;HTU21D;64051;46.320;48.028;2023-03-14T03:25:41;4.47;60.56
75471;HTU21D;64051;46.320;48.028;2023-03-14T03:28:07;4.46;60.66
75471;HTU21D;64051;46.320;48.028;2023-03-14T03:30:40;4.44;60.74
75471;HTU21D;64051;46.320;48.028;2023-03-14T03:33:06;4.41;60.83
75471;HTU21D;64051;46.320;48.028;2023-03-14T03:35:33;4.36;60.91
75471;HTU21D;64051;46.320;48.028;2023-03-14T03:37:59;4.35;60.92
75471;HTU21D;64051;46.320;48.028;2023-03-14T03:40:31;4.32;61.00
75471;HTU21D;64051;46.320;48.028;2023-03-14T03:42:57;4.30;61.09
75471;HTU21D;64051;46.320;48.028;2023-03-14T03:45:23;4.28;61.16
75471;HTU21D;64051;46.320;48.028;2023-03-14T03:47:54;4.26;61.24
75471;HTU21D;64051;46.320;48.028;2023-03-14T03:50:20;4.23;61.28
75471;HTU21D;64051;46.320;48.028;2023-03-14T03:52:46;4.24;61.31
75471;HTU21D;64051;46.320;48.028;2023-03-14T03:55:14;4.17;61.48
75471;HTU21D;64051;46.320;48.028;2023-03-14T03:57:42;4.14;61.54
75471;HTU21D;64051;46.320;48.028;2023-03-14T04:00:09;4.13;61.59
75471;HTU21D;64051;46.320;48.028;2023-03-14T04:02:40;4.09;61.67
75471;HTU21D;64051;46.320;48.028;2023-03-14T04:05:06;4.08;61.72
75471;HTU21D;64051;46.320;48.028;2023-03-14T04:07:33;4.05;61.79
75471;HTU21D;64051;46.320;48.028;2023-03-14T04:10:02;4.04;61.92
75471;HTU21D;64051;46.320;48.028;2023-03-14T04:12:35;4.06;62.00
75471;HTU21D;64051;46.320;48.028;2023-03-14T04:15:22;4.09;62.10
75471;HTU21D;64051;46.320;48.028;2023-03-14T04:17:51;4.13;62.18
75471;HTU21D;64051;46.320;48.028;2023-03-14T04:20:17;4.16;62.20
75471;HTU21D;64051;46.320;48.028;2023-03-14T04:22:43;4.21;62.19
75471;HTU21D;64051;46.320;48.028;2023-03-14T04:25:09;4.22;62.22
75471;HTU21D;64051;46.320;48.028;2023-03-14T04:27:40;4.27;62.23
75471;HTU21D;64051;46.320;48.028;2023-03-14T04:30:15;4.32;62.10
75471;HTU21D;64051;46.320;48.028;2023-03-14T04:32:50;4.36;61.93
75471;HTU21D;64051;46.320;48.028;2023-03-14T04:35:17;4.36;61.99
75471;HTU21D;64051;46.320;48.028;2023-03-14T04:37:43;4.41;61.82
75471;HTU21D;64051;46.320;48.028;2023-03-14T04:40:11;4.44;61.79
75471;HTU21D;64051;46.320;48.028;2023-03-14T04:42:37;4.48;61.81
75471;HTU21D;64051;46.320;48.028;2023-03-14T04:45:04;4.52;61.63
75471;HTU21D;64051;46.320;48.028;2023-03-14T04:47:31;4.59;61.57
75471;HTU21D;64051;46.320;48.028;2023-03-14T04:49:58;4.64;61.53
75471;HTU21D;64051;46.320;48.028;2023-03-14T04:52:27;4.73;61.29
75471;HTU21D;64051;46.320;48.028;2023-03-14T04:54:55;4.80;61.11
75471;HTU21D;64051;46.320;48.028;2023-03-14T04:57:23;4.84;60.79
75471;HTU21D;64051;46.320;48.028;2023-03-14T04:59:49;4.91;60.41
75471;HTU21D;64051;46.320;48.028;2023-03-14T05:02:35;4.95;60.46
75471;HTU21D;64051;46.320;48.028;2023-03-14T05:05:23;5.05;60.09
75471;HTU21D;64051;46.320;48.028;2023-03-14T05:08:10;5.15;59.75
75471;HTU21D;64051;46.320;48.028;2023-03-14T05:11:02;5.20;59.73
75471;HTU21D;64051;46.320;48.028;2023-03-14T05:13:48;5.30;59.50
75471;HTU21D;64051;46.320;48.028;2023-03-14T05:16:33;5.35;58.54
75471;HTU21D;64051;46.320;48.028;2023-03-14T05:19:11;5.41;58.71
75471;HTU21D;64051;46.320;48.028;2023-03-14T05:22:15;5.45;58.20
75471;HTU21D;64051;46.320;48.028;2023-03-14T05:25:10;5.46;57.20
75471;HTU21D;64051;46.320;48.028;2023-03-14T05:27:54;5.50;57.64
75471;HTU21D;64051;46.320;48.028;2023-03-14T05:30:55;5.55;57.20
75471;HTU21D;64051;46.320;48.028;2023-03-14T05:33:42;5.60;57.14
75471;HTU21D;64051;46.320;48.028;2023-03-14T05:36:26;5.70;57.33
75471;HTU21D;64051;46.320;48.028;2023-03-14T05:39:03;5.81;56.63
75471;HTU21D;64051;46.320;48.028;2023-03-14T05:41:38;5.86;56.64
75471;HTU21D;64051;46.320;48.028;2023-03-14T05:44:21;5.93;56.56
75471;HTU21D;64051;46.320;48.028;2023-03-14T05:47:05;6.00;56.45
75471;HTU21D;64051;46.320;48.028;2023-03-14T05:49:47;6.09;56.16
75471;HTU21D;64051;46.320;48.028;2023-03-14T05:52:41;6.16;55.94
75471;HTU21D;64051;46.320;48.028;2023-03-14T05:55:27;6.23;55.49
75471;HTU21D;64051;46.320;48.028;2023-03-14T05:58:12;6.28;55.47
75471;HTU21D;64051;46.320;48.028;2023-03-14T06:00:56;6.36;55.07
75471;HTU21D;64051;46.320;48.028;2023-03-14T06:03:38;6.39;54.06
75471;HTU21D;64051;46.320;48.028;2023-03-14T06:06:05;6.41;54.22
75471;HTU21D;64051;46.320;48.028;2023-03-14T06:08:34;6.51;53.91
75471;HTU21D;64051;46.320;48.028;2023-03-14T06:11:03;6.59;53.30
75471;HTU21D;64051;46.320;48.028;2023-03-14T06:13:30;6.64;52.68
75471;HTU21D;64051;46.320;48.028;2023-03-14T06:15:55;6.69;51.65
75471;HTU21D;64051;46.320;48.028;2023-03-14T06:18:21;6.74;51.08
75471;HTU21D;64051;46.320;48.028;2023-03-14T06:20:48;6.80;51.03
75471;HTU21D;64051;46.320;48.028;2023-03-14T06:23:22;6.88;51.66
75471;HTU21D;64051;46.320;48.028;2023-03-14T06:25:49;6.95;51.21
75471;HTU21D;64051;46.320;48.028;2023-03-14T06:28:14;6.97;50.91
75471;HTU21D;64051;46.320;48.028;2023-03-14T06:30:41;7.01;50.67
75471;HTU21D;64051;46.320;48.028;2023-03-14T06:33:17;7.11;48.77
75471;HTU21D;64051;46.320;48.028;2023-03-14T06:35:44;7.19;50.05
75471;HTU21D;64051;46.320;48.028;2023-03-14T06:38:13;7.26;50.69
75471;HTU21D;64051;46.320;48.028;2023-03-14T06:40:39;7.34;50.10
75471;HTU21D;64051;46.320;48.028;2023-03-14T06:43:10;7.39;49.95
75471;HTU21D;64051;46.320;48.028;2023-03-14T06:45:38;7.50;49.93
75471;HTU21D;64051;46.320;48.028;2023-03-14T06:48:05;7.64;49.98
75471;HTU21D;64051;46.320;48.028;2023-03-14T06:50:38;7.77;50.08
75471;HTU21D;64051;46.320;48.028;2023-03-14T06:53:04;7.88;49.47
75471;HTU21D;64051;46.320;48.028;2023-03-14T06:55:32;7.96;48.20
75471;HTU21D;64051;46.320;48.028;2023-03-14T06:57:58;8.01;48.95
75471;HTU21D;64051;46.320;48.028;2023-03-14T07:00:32;8.12;48.58
75471;HTU21D;64051;46.320;48.028;2023-03-14T07:02:58;8.20;48.15
75471;HTU21D;64051;46.320;48.028;2023-03-14T07:05:28;8.31;48.32
75471;HTU21D;64051;46.320;48.028;2023-03-14T07:07:55;8.44;48.31
75471;HTU21D;64051;46.320;48.028;2023-03-14T07:10:22;8.56;47.51
75471;HTU21D;64051;46.320;48.028;2023-03-14T07:12:49;8.63;47.54
75471;HTU21D;64051;46.320;48.028;2023-03-14T07:15:19;8.74;47.33
75471;HTU21D;64051;46.320;48.028;2023-03-14T07:17:50;8.75;46.34
75471;HTU21D;64051;46.320;48.028;2023-03-14T07:20:18;8.72;46.14
75471;HTU21D;64051;46.320;48.028;2023-03-14T07:22:47;8.77;45.95
75471;HTU21D;64051;46.320;48.028;2023-03-14T07:25:13;8.83;46.44
75471;HTU21D;64051;46.320;48.028;2023-03-14T07:27:39;9.01;46.32
75471;HTU21D;64051;46.320;48.028;2023-03-14T07:30:09;9.17;45.51
75471;HTU21D;64051;46.320;48.028;2023-03-14T07:32:35;9.15;45.07
75471;HTU21D;64051;46.320;48.028;2023-03-14T07:35:04;9.10;43.90
75471;HTU21D;64051;46.320;48.028;2023-03-14T07:37:42;9.07;43.67
75471;HTU21D;64051;46.320;48.028;2023-03-14T07:40:10;9.07;43.87
75471;HTU21D;64051;46.320;48.028;2023-03-14T07:42:38;9.10;44.04
75471;HTU21D;64051;46.320;48.028;2023-03-14T07:45:16;9.12;43.70
75471;HTU21D;64051;46.320;48.028;2023-03-14T07:47:42;9.19;43.68
75471;HTU21D;64051;46.320;48.028;2023-03-14T07:50:09;9.27;43.17
75471;HTU21D;64051;46.320;48.028;2023-03-14T07:52:38;9.32;42.80
75471;HTU21D;64051;46.320;48.028;2023-03-14T07:55:04;9.41;43.06
75471;HTU21D;64051;46.320;48.028;2023-03-14T07:57:31;9.55;43.06
75471;HTU21D;64051;46.320;48.028;2023-03-14T07:59:57;9.69;42.86
75471;HTU21D;64051;46.320;48.028;2023-03-14T08:02:29;9.82;42.79
75471;HTU21D;64051;46.320;48.028;2023-03-14T08:04:55;9.92;42.61
75471;HTU21D;64051;46.320;48.028;2023-03-14T08:07:21;9.98;42.36
75471;HTU21D;64051;46.320;48.028;2023-03-14T08:09:49;10.05;42.03
75471;HTU21D;64051;46.320;48.028;2023-03-14T08:12:15;10.10;41.44
75471;HTU21D;64051;46.320;48.028;2023-03-14T08:14:41;10.08;41.04
75471;HTU21D;64051;46.320;48.028;2023-03-14T08:17:16;10.04;40.33
75471;HTU21D;64051;46.320;48.028;2023-03-14T08:19:42;10.09;41.46
75471;HTU21D;64051;46.320;48.028;2023-03-14T08:22:08;10.13;41.17
75471;HTU21D;64051;46.320;48.028;2023-03-14T08:24:37;10.26;39.19
75471;HTU21D;64051;46.320;48.028;2023-03-14T08:27:06;10.33;40.01
75471;HTU21D;64051;46.320;48.028;2023-03-14T08:29:35;10.38;40.52
75471;HTU21D;64051;46.320;48.028;2023-03-14T08:32:00;10.44;40.15
75471;HTU21D;64051;46.320;48.028;2023-03-14T08:34:30;10.54;40.51
75471;HTU21D;64051;46.320;48.028;2023-03-14T08:37:01;10.66;40.78
75471;HTU21D;64051;46.320;48.028;2023-03-14T08:39:27;10.72;40.29
75471;HTU21D;64051;46.320;48.028;2023-03-14T08:41:56;10.78;40.00
75471;HTU21D;64051;46.320;48.028;2023-03-14T08:44:28;10.79;39.36
75471;HTU21D;64051;46.320;48.028;2023-03-14T08:46:54;10.80;39.61
75471;HTU21D;64051;46.320;48.028;2023-03-14T08:49:22;10.84;39.73
75471;HTU21D;64051;46.320;48.028;2023-03-14T08:51:48;10.96;39.30
75471;HTU21D;64051;46.320;48.028;2023-03-14T08:54:14;10.97;38.70
75471;HTU21D;64051;46.320;48.028;2023-03-14T08:56:40;10.95;38.04
75471;HTU21D;64051;46.320;48.028;2023-03-14T08:59:06;10.90;38.11
75471;HTU21D;64051;46.320;48.028;2023-03-14T09:01:33;10.83;37.96
75471;HTU21D;64051;46.320;48.028;2023-03-14T09:03:59;10.89;38.36
75471;HTU21D;64051;46.320;48.028;2023-03-14T09:06:25;10.99;38.73
75471;HTU21D;64051;46.320;48.028;2023-03-14T09:08:51;11.10;38.44
75471;HTU21D;64051;46.320;48.028;2023-03-14T09:11:17;11.16;38.16
75471;HTU21D;64051;46.320;48.028;2023-03-14T09:13:44;11.19;37.96
75471;HTU21D;64051;46.320;48.028;2023-03-14T09:16:14;11.26;38.04
75471;HTU21D;64051;46.320;48.028;2023-03-14T09:18:40;11.34;37.53
75471;HTU21D;64051;46.320;48.028;2023-03-14T09:21:11;11.39;37.01
75471;HTU21D;64051;46.320;48.028;2023-03-14T09:23:41;11.47;37.00
75471;HTU21D;64051;46.320;48.028;2023-03-14T09:26:11;11.53;37.10
75471;HTU21D;64051;46.320;48.028;2023-03-14T09:28:37;11.61;36.98
75471;HTU21D;64051;46.320;48.028;2023-03-14T09:31:10;11.66;36.69
75471;HTU21D;64051;46.320;48.028;2023-03-14T09:33:36;11.70;36.98
75471;HTU21D;64051;46.320;48.028;2023-03-14T09:36:04;11.74;36.82
75471;HTU21D;64051;46.320;48.028;2023-03-14T09:38:30;11.78;36.49
75471;HTU21D;64051;46.320;48.028;2023-03-14T09:41:01;11.74;36.23
75471;HTU21D;64051;46.320;48.028;2023-03-14T09:43:30;11.72;35.13
75471;HTU21D;64051;46.320;48.028;2023-03-14T09:45:59;11.71;35.73
75471;HTU21D;64051;46.320;48.028;2023-03-14T09:48:31;11.71;35.84
75471;HTU21D;64051;46.320;48.028;2023-03-14T09:51:05;11.74;35.53
75471;HTU21D;64051;46.320;48.028;2023-03-14T09:53:45;11.79;34.97
75471;HTU21D;64051;46.320;48.028;2023-03-14T09:59:02;12.04;34.99
75471;HTU21D;64051;46.320;48.028;2023-03-14T10:01:32;12.04;34.54
75471;HTU21D;64051;46.320;48.028;2023-03-14T10:04:07;11.98;34.44
75471;HTU21D;64051;46.320;48.028;2023-03-14T10:06:35;11.94;34.44
75471;HTU21D;64051;46.320;48.028;2023-03-14T10:09:05;12.02;34.98
75471;HTU21D;64051;46.320;48.028;2023-03-14T10:11:31;12.06;34.27
75471;HTU21D;64051;46.320;48.028;2023-03-14T10:14:09;12.05;33.08
75471;HTU21D;64051;46.320;48.028;2023-03-14T10:16:41;12.06;33.96
75471;HTU21D;64051;46.320;48.028;2023-03-14T10:19:15;12.08;33.01
75471;HTU21D;64051;46.320;48.028;2023-03-14T10:21:52;12.03;31.83
75471;HTU21D;64051;46.320;48.028;2023-03-14T10:26:58;11.88;32.96
75471;HTU21D;64051;46.320;48.028;2023-03-14T10:29:27;11.92;32.11
75471;HTU21D;64051;46.320;48.028;2023-03-14T10:32:04;11.96;31.90
75471;HTU21D;64051;46.320;48.028;2023-03-14T10:34:36;11.94;32.47
75471;HTU21D;64051;46.320;48.028;2023-03-14T10:37:18;11.91;30.08
75471;HTU21D;64051;46.320;48.028;2023-03-14T10:39:51;11.89;31.55
75471;HTU21D;64051;46.320;48.028;2023-03-14T10:42:25;11.86;31.81
75471;HTU21D;64051;46.320;48.028;2023-03-14T10:45:10;11.89;32.70
75471;HTU21D;64051;46.320;48.028;2023-03-14T10:47:49;11.99;32.38
75471;HTU21D;64051;46.320;48.028;2023-03-14T10:50:27;12.06;30.87
75471;HTU21D;64051;46.320;48.028;2023-03-14T10:53:00;12.10;32.26
75471;HTU21D;64051;46.320;48.028;2023-03-14T10:55:44;12.19;30.87
75471;HTU21D;64051;46.320;48.028;2023-03-14T10:58:28;12.31;31.91
75471;HTU21D;64051;46.320;48.028;2023-03-14T11:03:43;12.42;31.57
75471;HTU21D;64051;46.320;48.028;2023-03-14T11:09:26;12.41;30.86
75471;HTU21D;64051;46.320;48.028;2023-03-14T11:14:59;12.42;30.66
75471;HTU21D;64051;46.320;48.028;2023-03-14T11:17:51;12.34;29.78
75471;HTU21D;64051;46.320;48.028;2023-03-14T11:20:37;12.30;30.13
75471;HTU21D;64051;46.320;48.028;2023-03-14T11:23:29;12.33;30.30
75471;HTU21D;64051;46.320;48.028;2023-03-14T11:29:39;12.32;30.46
75471;HTU21D;64051;46.320;48.028;2023-03-14T11:32:36;12.26;29.69
75471;HTU21D;64051;46.320;48.028;2023-03-14T11:35:12;12.30;30.52
75471;HTU21D;64051;46.320;48.028;2023-03-14T11:37:56;12.30;29.08
75471;HTU21D;64051;46.320;48.028;2023-03-14T11:40:27;12.29;30.44
75471;HTU21D;64051;46.320;48.028;2023-03-14T11:45:37;12.18;28.32
75471;HTU21D;64051;46.320;48.028;2023-03-14T11:48:34;12.16;27.47
75471;HTU21D;64051;46.320;48.028;2023-03-14T11:51:05;12.19;29.84
75471;HTU21D;64051;46.320;48.028;2023-03-14T11:53:50;12.29;29.90
75471;HTU21D;64051;46.320;48.028;2023-03-14T11:56:43;12.38;28.31
75471;HTU21D;64051;46.320;48.028;2023-03-14T11:59:21;12.51;30.14
75471;HTU21D;64051;46.320;48.028;2023-03-14T12:04:44;12.59;28.45
75471;HTU21D;64051;46.320;48.028;2023-03-14T12:09:45;12.50;30.28
75471;HTU21D;64051;46.320;48.028;2023-03-14T12:12:24;12.43;26.07
75471;HTU21D;64051;46.320;48.028;2023-03-14T12:15:02;12.38;29.49
75471;HTU21D;64051;46.320;48.028;2023-03-14T12:17:40;12.21;28.50
75471;HTU21D;64051;46.320;48.028;2023-03-14T12:20:17;12.03;29.05
75471;HTU21D;64051;46.320;48.028;2023-03-14T12:22:55;11.87;29.71
75471;HTU21D;64051;46.320;48.028;2023-03-14T12:25:25;11.81;29.97
75471;HTU21D;64051;46.320;48.028;2023-03-14T12:30:37;11.77;27.76
75471;HTU21D;64051;46.320;48.028;2023-03-14T12:35:45;11.83;29.58
75471;HTU21D;64051;46.320;48.028;2023-03-14T12:38:23;11.90;30.66
75471;HTU21D;64051;46.320;48.028;2023-03-14T12:43:32;12.08;30.39
75471;HTU21D;64051;46.320;48.028;2023-03-14T12:51:20;12.13;29.77
75471;HTU21D;64051;46.320;48.028;2023-03-14T12:54:04;12.06;29.19
75471;HTU21D;64051;46.320;48.028;2023-03-14T12:59:34;12.01;30.32
75471;HTU21D;64051;46.320;48.028;2023-03-14T13:04:46;12.01;29.45
75471;HTU21D;64051;46.320;48.028;2023-03-14T13:15:38;11.67;29.41
75471;HTU21D;64051;46.320;48.028;2023-03-14T13:18:15;11.59;29.75
75471;HTU21D;64051;46.320;48.028;2023-03-14T13:20:46;11.58;29.17
75471;HTU21D;64051;46.320;48.028;2023-03-14T13:23:32;11.57;29.71
75471;HTU21D;64051;46.320;48.028;2023-03-14T13:26:03;11.55;30.29
75471;HTU21D;64051;46.320;48.028;2023-03-14T13:28:32;11.53;30.46
75471;HTU21D;64051;46.320;48.028;2023-03-14T13:31:04;11.54;30.67
75471;HTU21D;64051;46.320;48.028;2023-03-14T13:33:43;11.51;29.64
75471;HTU21D;64051;46.320;48.028;2023-03-14T13:36:13;11.47;31.11
75471;HTU21D;64051;46.320;48.028;2023-03-14T13:38:56;11.38;30.30
75471;HTU21D;64051;46.320;48.028;2023-03-14T13:41:23;11.29;30.54
75471;HTU21D;64051;46.320;48.028;2023-03-14T13:44:08;11.24;29.62
75471;HTU21D;64051;46.320;48.028;2023-03-14T13:46:48;11.13;30.39
75471;HTU21D;64051;46.320;48.028;2023-03-14T13:49:23;11.02;29.26
75471;HTU21D;64051;46.320;48.028;2023-03-14T13:51:53;10.98;30.51
75471;HTU21D;64051;46.320;48.028;2023-03-14T13:54:26;10.92;30.47
75471;HTU21D;64051;46.320;48.028;2023-03-14T13:57:05;10.85;30.03
75471;HTU21D;64051;46.320;48.028;2023-03-14T13:59:35;10.80;29.67
75471;HTU21D;64051;46.320;48.028;2023-03-14T14:02:12;10.75;30.54
75471;HTU21D;64051;46.320;48.028;2023-03-14T14:04:42;10.70;30.79
75471;HTU21D;64051;46.320;48.028;2023-03-14T14:07:13;10.67;30.61
75471;HTU21D;64051;46.320;48.028;2023-03-14T14:09:51;10.62;30.69
75471;HTU21D;64051;46.320;48.028;2023-03-14T14:12:39;10.55;30.75
75471;HTU21D;64051;46.320;48.028;2023-03-14T14:15:43;10.49;30.13
75471;HTU21D;64051;46.320;48.028;2023-03-14T14:18:13;10.41;30.56
75471;HTU21D;64051;46.320;48.028;2023-03-14T14:20:43;10.37;31.17
75471;HTU21D;64051;46.320;48.028;2023-03-14T14:23:21;10.30;31.32
75471;HTU21D;64051;46.320;48.028;2023-03-14T14:25:55;10.24;31.45
75471;HTU21D;64051;46.320;48.028;2023-03-14T14:28:33;10.18;31.55
75471;HTU21D;64051;46.320;48.028;2023-03-14T14:36:38;9.93;31.77
75471;HTU21D;64051;46.320;48.028;2023-03-14T14:39:23;9.85;32.09
75471;HTU21D;64051;46.320;48.028;2023-03-14T14:41:51;9.76;32.35
75471;HTU21D;64051;46.320;48.028;2023-03-14T14:44:35;9.68;32.25
75471;HTU21D;64051;46.320;48.028;2023-03-14T14:47:11;9.61;32.73
75471;HTU21D;64051;46.320;48.028;2023-03-14T14:49:44;9.51;32.89
75471;HTU21D;64051;46.320;48.028;2023-03-14T14:52:43;9.44;32.76
75471;HTU21D;64051;46.320;48.028;2023-03-14T14:55:32;9.37;32.46
75471;HTU21D;64051;46.320;48.028;2023-03-14T14:58:20;9.30;33.13
75471;HTU21D;64051;46.320;48.028;2023-03-14T15:01:10;9.20;33.10
75471;HTU21D;64051;46.320;48.028;2023-03-14T15:03:37;9.11;33.74
75471;HTU21D;64051;46.320;48.028;2023-03-14T15:06:09;9.06;33.72
75471;HTU21D;64051;46.320;48.028;2023-03-14T15:08:40;9.00;33.89
75471;HTU21D;64051;46.320;48.028;2023-03-14T15:11:16;8.93;33.83
75471;HTU21D;64051;46.320;48.028;2023-03-14T15:13:44;8.89;34.15
75471;HTU21D;64051;46.320;48.028;2023-03-14T15:16:18;8.86;34.06
75471;HTU21D;64051;46.320;48.028;2023-03-14T15:18:47;8.82;34.30
75471;HTU21D;64051;46.320;48.028;2023-03-14T15:21:19;8.76;34.29
75471;HTU21D;64051;46.320;48.028;2023-03-14T15:23:45;8.74;34.41
75471;HTU21D;64051;46.320;48.028;2023-03-14T15:26:18;8.67;34.33
75471;HTU21D;64051;46.320;48.028;2023-03-14T15:28:52;8.63;34.53
75471;HTU21D;64051;46.320;48.028;2023-03-14T15:31:33;8.59;34.45
75471;HTU21D;64051;46.320;48.028;2023-03-14T15:34:02;8.55;34.65
75471;HTU21D;64051;46.320;48.028;2023-03-14T15:36:36;8.49;34.75
75471;HTU21D;64051;46.320;48.028;2023-03-14T15:39:06;8.45;34.92
75471;HTU21D;64051;46.320;48.028;2023-03-14T15:41:39;8.35;35.06
75471;HTU21D;64051;46.320;48.028;2023-03-14T15:44:05;8.21;35.29
75471;HTU21D;64051;46.320;48.028;2023-03-14T15:46:36;8.07;35.61
75471;HTU21D;64051;46.320;48.028;2023-03-14T15:49:03;7.93;35.94
75471;HTU21D;64051;46.320;48.028;2023-03-14T15:51:41;7.77;36.31
75471;HTU21D;64051;46.320;48.028;2023-03-14T15:54:10;7.62;36.66
75471;HTU21D;64051;46.320;48.028;2023-03-14T15:56:42;7.47;37.01
75471;HTU21D;64051;46.320;48.028;2023-03-14T15:59:16;7.35;37.46
75471;HTU21D;64051;46.320;48.028;2023-03-14T16:01:46;7.24;37.64
75471;HTU21D;64051;46.320;48.028;2023-03-14T16:04:16;7.12;37.91
75471;HTU21D;64051;46.320;48.028;2023-03-14T16:06:53;7.00;38.28
75471;HTU21D;64051;46.320;48.028;2023-03-14T16:09:22;6.87;38.57
75471;HTU21D;64051;46.320;48.028;2023-03-14T16:12:02;6.76;38.95
75471;HTU21D;64051;46.320;48.028;2023-03-14T16:14:35;6.66;39.27
75471;HTU21D;64051;46.320;48.028;2023-03-14T16:17:11;6.55;39.59
75471;HTU21D;64051;46.320;48.028;2023-03-14T16:19:43;6.48;39.78
75471;HTU21D;64051;46.320;48.028;2023-03-14T16:22:12;6.39;40.04
75471;HTU21D;64051;46.320;48.028;2023-03-14T16:24:41;6.33;40.35
75471;HTU21D;64051;46.320;48.028;2023-03-14T16:27:16;6.24;40.61
75471;HTU21D;64051;46.320;48.028;2023-03-14T16:29:48;6.16;40.76
75471;HTU21D;64051;46.320;48.028;2023-03-14T16:32:26;6.11;41.01
75471;HTU21D;64051;46.320;48.028;2023-03-14T16:35:04;6.06;41.32
75471;HTU21D;64051;46.320;48.028;2023-03-14T16:37:37;5.99;41.54
75471;HTU21D;64051;46.320;48.028;2023-03-14T16:40:10;5.94;41.69
75471;HTU21D;64051;46.320;48.028;2023-03-14T16:42:39;5.89;41.92
75471;HTU21D;64051;46.320;48.028;2023-03-14T16:45:07;5.83;42.21
75471;HTU21D;64051;46.320;48.028;2023-03-14T16:47:33;5.81;42.42
75471;HTU21D;64051;46.320;48.028;2023-03-14T16:50:11;5.77;42.65